createdAt,value
2018-12-17T00:01:47.428Z,49.80
2018-12-17T00:04:20.018Z,76.43
2018-12-17T00:06:52.582Z,82.77
2018-12-17T00:09:22.971Z,89.57
2018-12-17T00:11:53.333Z,79.93
2018-12-17T00:14:23.408Z,88.73
2018-12-17T00:16:54.264Z,85.67
2018-12-17T00:19:24.534Z,86.50
2018-12-17T00:21:54.933Z,72.70
2018-12-17T00:24:25.448Z,81.40
2018-12-17T00:26:56.434Z,74.57
2018-12-17T00:29:26.807Z,84.87
2018-12-17T00:31:57.060Z,81.57
2018-12-17T00:34:27.776Z,87.40
2018-12-17T00:36:58.485Z,86.77
2018-12-17T00:39:29.220Z,79.20
2018-12-17T00:41:59.921Z,86.27
2018-12-17T00:44:29.968Z,77.87
2018-12-17T00:47:00.278Z,80.37
2018-12-17T00:49:30.691Z,87.07
2018-12-17T00:52:00.825Z,82.93
2018-12-17T00:54:31.306Z,86.03
2018-12-17T00:57:01.521Z,80.30
2018-12-17T00:59:31.951Z,78.67
2018-12-17T01:02:02.829Z,86.87
2018-12-17T01:04:33.156Z,80.13
2018-12-17T01:07:03.078Z,80.13
2018-12-17T01:09:33.141Z,86.77
2018-12-17T01:12:03.676Z,79.67
2018-12-17T01:14:34.283Z,76.43
2018-12-17T01:17:04.853Z,82.67
2018-12-17T01:19:34.827Z,69.07
2018-12-17T01:22:05.121Z,77.47
2018-12-17T01:24:35.271Z,74.37
2018-12-17T01:27:13.424Z,73.97
2018-12-17T01:29:43.726Z,74.20
2018-12-17T01:32:13.675Z,71.27
2018-12-17T01:34:43.779Z,78.30
2018-12-17T01:37:14.149Z,83.57
2018-12-17T01:39:44.326Z,81.77
2018-12-17T01:42:14.256Z,78.57
2018-12-17T01:44:44.368Z,66.20
2018-12-17T01:47:14.681Z,84.53
2018-12-17T01:49:44.596Z,76.03
2018-12-17T01:52:14.596Z,79.60
2018-12-17T01:54:44.761Z,87.20
2018-12-17T01:57:14.967Z,79.63
2018-12-17T01:59:44.914Z,78.20
2018-12-17T02:02:15.214Z,81.70
2018-12-17T02:04:45.508Z,83.37
2018-12-17T02:07:17.100Z,94.10
2018-12-17T02:09:47.731Z,93.07
2018-12-17T02:12:18.047Z,92.33
2018-12-17T02:14:48.270Z,89.20
2018-12-17T02:17:18.819Z,93.53
2018-12-17T02:19:49.746Z,92.77
2018-12-17T02:22:20.591Z,87.50
2018-12-17T02:24:51.007Z,88.57
2018-12-17T02:27:21.523Z,98.03
2018-12-17T02:29:51.526Z,95.10
2018-12-17T02:32:21.585Z,88.97
2018-12-17T02:34:57.326Z,95.97
2018-12-17T02:37:28.629Z,85.93
2018-12-17T02:39:58.862Z,93.30
2018-12-17T02:42:30.414Z,98.97
2018-12-17T02:45:01.464Z,93.80
2018-12-17T02:47:32.559Z,96.07
2018-12-17T02:50:03.267Z,90.60
2018-12-17T02:52:33.377Z,93.13
2018-12-17T02:55:04.794Z,101.10
2018-12-17T02:57:35.190Z,89.80
2018-12-17T03:00:06.884Z,95.60
2018-12-17T03:02:39.973Z,97.90
2018-12-17T03:05:11.677Z,102.83
2018-12-17T03:07:41.684Z,107.47
2018-12-17T03:10:12.118Z,113.73
2018-12-17T03:12:42.696Z,106.00
2018-12-17T03:15:13.170Z,103.43
2018-12-17T03:17:43.556Z,109.80
2018-12-17T03:20:13.689Z,93.83
2018-12-17T03:22:44.160Z,99.13
2018-12-17T03:25:14.527Z,85.97
2018-12-17T03:27:44.922Z,107.60
2018-12-17T03:30:15.550Z,101.73
2018-12-17T03:32:45.630Z,90.23
2018-12-17T03:35:16.086Z,105.03
2018-12-17T03:37:46.869Z,104.20
2018-12-17T03:40:17.061Z,100.63
2018-12-17T03:42:47.412Z,100.63
2018-12-17T03:45:17.768Z,107.63
2018-12-17T03:47:47.712Z,93.53
2018-12-17T03:50:18.292Z,93.50
2018-12-17T03:52:48.343Z,92.10
2018-12-17T03:55:18.678Z,102.20
2018-12-17T03:57:48.829Z,109.40
2018-12-17T04:00:28.017Z,94.43
2018-12-17T04:02:57.866Z,85.97
2018-12-17T04:05:29.290Z,88.90
2018-12-17T04:07:59.584Z,104.00
2018-12-17T04:10:29.721Z,89.73
2018-12-17T04:13:00.863Z,94.07
2018-12-17T04:15:31.599Z,100.90
2018-12-17T04:18:01.946Z,94.20
2018-12-17T04:20:32.291Z,94.67
2018-12-17T04:23:02.593Z,102.57
2018-12-17T04:25:32.608Z,89.80
2018-12-17T04:28:02.773Z,98.57
2018-12-17T04:30:33.010Z,92.57
2018-12-17T04:33:03.064Z,88.47
2018-12-17T04:35:33.654Z,91.53
2018-12-17T04:38:03.755Z,92.87
2018-12-17T04:40:34.026Z,82.50
2018-12-17T04:43:04.133Z,87.70
2018-12-17T04:45:33.992Z,82.20
2018-12-17T04:48:09.456Z,90.63
2018-12-17T04:50:40.130Z,93.10
2018-12-17T04:53:10.224Z,88.00
2018-12-17T04:55:40.517Z,87.73
2018-12-17T04:58:10.763Z,89.10
2018-12-17T05:00:41.327Z,76.67
2018-12-17T05:03:11.553Z,87.77
2018-12-17T05:05:41.840Z,75.80
2018-12-17T05:08:13.129Z,70.40
2018-12-17T05:10:44.103Z,81.17
2018-12-17T05:13:14.513Z,70.40
2018-12-17T05:15:44.767Z,81.73
2018-12-17T05:18:14.595Z,77.37
2018-12-17T05:20:45.263Z,69.70
2018-12-17T05:23:15.451Z,70.77
2018-12-17T05:25:45.904Z,68.67
2018-12-17T05:28:16.008Z,71.40
2018-12-17T05:30:46.167Z,87.80
2018-12-17T05:33:16.407Z,74.80
2018-12-17T05:35:46.758Z,70.90
2018-12-17T05:38:17.027Z,64.90
2018-12-17T05:40:47.375Z,68.63
2018-12-17T05:43:17.539Z,62.37
2018-12-17T05:45:48.596Z,67.03
2018-12-17T05:48:19.195Z,74.60
2018-12-17T05:50:49.782Z,90.93
2018-12-17T05:53:20.509Z,72.57
2018-12-17T05:55:50.891Z,69.63
2018-12-17T05:58:21.368Z,68.93
2018-12-17T06:00:52.757Z,61.80
2018-12-17T06:03:23.299Z,73.37
2018-12-17T06:05:53.350Z,64.10
2018-12-17T06:08:23.715Z,53.30
2018-12-17T06:10:54.644Z,59.23
2018-12-17T06:13:24.787Z,67.90
2018-12-17T06:15:55.654Z,59.00
2018-12-17T06:18:25.530Z,69.33
2018-12-17T06:20:56.650Z,76.03
2018-12-17T06:23:27.465Z,79.40
2018-12-17T06:25:58.177Z,66.17
2018-12-17T06:28:28.417Z,48.10
2018-12-17T06:30:58.809Z,58.07
2018-12-17T06:33:29.508Z,67.93
2018-12-17T06:35:59.831Z,94.20
2018-12-17T06:38:30.314Z,82.37
2018-12-17T06:41:00.789Z,72.80
2018-12-17T06:43:31.658Z,81.73
2018-12-17T06:46:02.278Z,84.07
2018-12-17T06:48:32.177Z,92.03
2018-12-17T06:51:02.293Z,92.27
2018-12-17T06:53:33.044Z,88.20
2018-12-17T06:56:04.750Z,89.23
2018-12-17T06:58:36.608Z,90.03
2018-12-17T07:01:07.477Z,99.13
2018-12-17T07:03:37.782Z,89.63
2018-12-17T07:06:08.081Z,85.97
2018-12-17T07:08:38.487Z,84.77
2018-12-17T07:11:09.575Z,92.50
2018-12-17T07:13:39.719Z,66.13
2018-12-17T07:16:10.299Z,84.63
2018-12-17T07:18:41.076Z,63.43
2018-12-17T07:21:11.771Z,91.43
2018-12-17T07:23:42.068Z,89.03
2018-12-17T07:26:12.546Z,83.17
2018-12-17T07:28:43.283Z,83.63
2018-12-17T07:31:14.318Z,90.33
2018-12-17T07:33:44.688Z,87.73
2018-12-17T07:36:15.325Z,92.00
2018-12-17T07:38:47.034Z,91.87
2018-12-17T07:41:17.632Z,85.67
2018-12-17T07:43:48.712Z,94.37
2018-12-17T07:46:19.726Z,87.93
2018-12-17T07:48:49.664Z,96.10
2018-12-17T07:51:20.659Z,80.87
2018-12-17T07:53:50.773Z,92.90
2018-12-17T07:56:20.985Z,96.00
2018-12-17T07:58:51.896Z,93.60
2018-12-17T08:01:22.339Z,101.70
2018-12-17T08:03:53.777Z,95.73
2018-12-17T08:06:23.891Z,98.97
2018-12-17T08:08:54.208Z,97.70
2018-12-17T08:11:24.437Z,97.50
2018-12-17T08:13:54.686Z,99.97
2018-12-17T08:16:24.862Z,94.90
2018-12-17T08:18:55.261Z,101.37
2018-12-17T08:21:25.610Z,94.07
2018-12-17T08:23:56.283Z,96.53
2018-12-17T08:26:29.955Z,112.30
2018-12-17T08:29:00.893Z,111.33
2018-12-17T08:31:31.607Z,111.97
2018-12-17T08:34:02.044Z,111.40
2018-12-17T08:36:32.537Z,115.70
2018-12-17T08:39:03.816Z,109.27
2018-12-17T08:41:34.883Z,115.80
2018-12-17T08:44:05.638Z,97.23
2018-12-17T08:46:36.505Z,129.07
2018-12-17T08:49:07.616Z,124.13
2018-12-17T08:51:39.598Z,123.73
2018-12-17T08:54:09.951Z,119.60
2018-12-17T08:56:40.493Z,124.30
2018-12-17T08:59:10.920Z,125.17
2018-12-17T09:01:41.977Z,120.53
2018-12-17T09:04:11.976Z,138.07
2018-12-17T09:06:42.315Z,118.17
2018-12-17T09:09:12.629Z,125.33
2018-12-17T09:11:43.020Z,118.20
2018-12-17T09:14:13.161Z,121.07
2018-12-17T09:16:43.436Z,127.70
2018-12-17T09:19:14.042Z,121.50
2018-12-17T09:21:44.553Z,121.40
2018-12-17T09:24:15.350Z,119.73
2018-12-17T09:26:45.507Z,120.90
2018-12-17T09:29:16.120Z,120.53
2018-12-17T09:31:46.478Z,124.67
2018-12-17T09:34:16.870Z,136.50
2018-12-17T09:36:47.396Z,125.93
2018-12-17T09:39:17.583Z,107.17
2018-12-17T09:41:48.367Z,123.20
2018-12-17T09:44:18.407Z,109.83
2018-12-17T09:46:50.000Z,120.27
2018-12-17T09:49:20.575Z,118.83
2018-12-17T09:51:50.596Z,109.63
2018-12-17T09:54:20.890Z,120.27
2018-12-17T09:56:52.792Z,129.17
2018-12-17T09:59:23.879Z,110.80
2018-12-17T10:02:00.296Z,117.20
2018-12-17T10:04:36.102Z,114.57
2018-12-17T10:07:08.063Z,102.07
2018-12-17T10:09:40.475Z,109.03
2018-12-17T10:12:13.668Z,109.90
2018-12-17T10:14:43.878Z,124.33
2018-12-17T10:17:14.754Z,98.47
2018-12-17T10:19:45.023Z,98.33
2018-12-17T10:22:15.567Z,90.33
2018-12-17T10:24:45.629Z,91.80
2018-12-17T10:27:16.460Z,107.40
2018-12-17T10:29:46.683Z,98.80
2018-12-17T10:32:21.709Z,98.53
2018-12-17T10:34:52.981Z,102.20
2018-12-17T10:37:24.229Z,106.07
2018-12-17T10:39:57.846Z,100.23
2018-12-17T10:42:28.280Z,99.83
2018-12-17T10:44:59.281Z,105.30
2018-12-17T10:47:29.724Z,95.27
2018-12-17T10:50:01.757Z,103.17
2018-12-17T10:52:33.953Z,98.73
2018-12-17T10:55:09.554Z,97.67
2018-12-17T10:57:40.292Z,104.53
2018-12-17T11:00:19.758Z,91.10
2018-12-17T11:02:52.346Z,83.10
2018-12-17T11:05:25.087Z,74.17
2018-12-17T11:07:55.659Z,95.53
2018-12-17T11:10:27.248Z,97.73
2018-12-17T11:13:02.549Z,90.80
2018-12-17T11:15:36.564Z,97.80
2018-12-17T11:18:09.267Z,94.67
2018-12-17T11:20:40.235Z,84.97
2018-12-17T11:23:14.012Z,92.53
2018-12-17T11:25:46.403Z,98.47
2018-12-17T11:28:18.246Z,95.47
2018-12-17T11:30:52.486Z,98.63
2018-12-17T11:33:25.074Z,92.53
2018-12-17T11:35:55.971Z,93.27
2018-12-17T11:38:26.132Z,103.57
2018-12-17T11:40:57.568Z,105.53
2018-12-17T11:43:31.067Z,115.10
2018-12-17T11:46:03.864Z,111.17
2018-12-17T11:48:34.522Z,94.13
2018-12-17T11:51:04.604Z,104.77
2018-12-17T11:53:34.665Z,104.10
2018-12-17T11:56:05.458Z,106.93
2018-12-17T11:58:35.653Z,99.77
2018-12-17T12:01:08.559Z,104.37
2018-12-17T12:03:42.730Z,103.70
2018-12-17T12:06:14.304Z,95.80
2018-12-17T12:08:44.679Z,93.80
2018-12-17T12:11:14.953Z,91.33
2018-12-17T12:13:45.211Z,72.77
2018-12-17T12:16:16.029Z,87.63
2018-12-17T12:18:47.205Z,82.47
2018-12-17T12:21:17.428Z,77.63
2018-12-17T12:23:48.597Z,81.67
2018-12-17T12:26:19.104Z,75.07
2018-12-17T12:28:49.306Z,84.13
2018-12-17T12:31:19.811Z,69.60
2018-12-17T12:33:50.026Z,67.53
2018-12-17T12:36:20.735Z,73.27
2018-12-17T12:38:51.027Z,67.97
2018-12-17T12:41:21.406Z,67.90
2018-12-17T12:43:51.839Z,69.37
2018-12-17T12:46:22.059Z,66.97
2018-12-17T12:48:52.193Z,73.97
2018-12-17T12:51:22.195Z,68.50
2018-12-17T12:53:52.398Z,69.00
2018-12-17T12:56:22.922Z,62.67
2018-12-17T12:58:53.013Z,66.50
2018-12-17T13:01:24.064Z,65.47
2018-12-17T13:03:54.671Z,69.90
2018-12-17T13:06:24.683Z,70.70
2018-12-17T13:08:54.926Z,77.20
2018-12-17T13:11:24.992Z,76.87
2018-12-17T13:13:55.357Z,73.23
2018-12-17T13:16:24.915Z,80.00
2018-12-17T13:18:55.385Z,76.17
2018-12-17T13:21:25.818Z,73.00
2018-12-17T13:23:55.731Z,81.20
2018-12-17T13:26:25.478Z,77.17
2018-12-17T13:28:55.123Z,79.97
2018-12-17T13:31:26.016Z,71.03
2018-12-17T13:33:55.818Z,72.27
2018-12-17T13:36:26.234Z,70.90
2018-12-17T13:38:56.088Z,79.67
2018-12-17T13:41:26.125Z,77.70
2018-12-17T13:43:56.228Z,81.43
2018-12-17T13:46:26.422Z,82.50
2018-12-17T13:48:56.613Z,82.50
2018-12-17T13:51:31.776Z,82.67
2018-12-17T13:54:01.985Z,86.80
2018-12-17T13:56:32.256Z,92.93
2018-12-17T13:59:02.417Z,93.50
2018-12-17T14:01:32.376Z,88.93
2018-12-17T14:04:02.361Z,92.10
2018-12-17T14:06:32.509Z,105.93
2018-12-17T14:09:02.701Z,102.73
2018-12-17T14:11:33.811Z,103.57
2018-12-17T14:14:03.999Z,109.10
2018-12-17T14:16:39.029Z,100.07
2018-12-17T14:19:14.798Z,115.77
2018-12-17T14:21:49.962Z,98.17
2018-12-17T14:24:19.999Z,102.23
2018-12-17T14:26:49.826Z,98.67
2018-12-17T14:29:19.732Z,104.37
2018-12-17T14:31:50.066Z,107.17
2018-12-17T14:34:20.076Z,102.17
2018-12-17T14:36:50.170Z,96.80
2018-12-17T14:39:20.015Z,122.50
2018-12-17T14:41:50.008Z,109.97
2018-12-17T14:44:24.865Z,97.73
2018-12-17T14:46:58.928Z,109.60
2018-12-17T14:49:28.964Z,119.83
2018-12-17T14:51:58.763Z,115.73
2018-12-17T14:54:28.829Z,122.53
2018-12-17T14:56:58.743Z,115.17
2018-12-17T14:59:28.740Z,147.70
2018-12-17T15:01:58.805Z,148.40
2018-12-17T15:04:28.861Z,160.40
2018-12-17T15:06:58.533Z,162.53
2018-12-17T15:09:28.888Z,173.90
2018-12-17T15:11:58.601Z,167.77
2018-12-17T15:14:28.572Z,173.43
2018-12-17T15:16:58.910Z,175.47
2018-12-17T15:19:28.956Z,184.17
2018-12-17T15:21:58.623Z,186.27
2018-12-17T15:24:28.859Z,173.83
2018-12-17T15:26:59.183Z,190.57
2018-12-17T15:29:29.278Z,180.60
2018-12-17T15:31:59.270Z,196.10
2018-12-17T15:34:29.115Z,188.07
2018-12-17T15:36:59.385Z,189.70
2018-12-17T15:39:29.449Z,197.27
2018-12-17T15:41:59.219Z,200.03
2018-12-17T15:44:29.135Z,198.67
2018-12-17T15:46:59.141Z,194.77
2018-12-17T15:49:29.017Z,810.80
2018-12-17T15:51:58.991Z,260.40
2018-12-17T15:54:29.274Z,237.77
2018-12-17T15:56:59.739Z,269.90
2018-12-17T15:59:29.957Z,241.40
2018-12-17T16:02:00.306Z,240.63
2018-12-17T16:04:30.778Z,223.60
2018-12-17T16:07:00.914Z,230.87
2018-12-17T16:09:32.105Z,247.30
2018-12-17T16:12:03.529Z,233.00
2018-12-17T16:14:34.193Z,232.30
2018-12-17T16:17:04.522Z,228.87
2018-12-17T16:19:34.666Z,223.23
2018-12-17T16:22:04.913Z,239.87
2018-12-17T16:24:35.036Z,240.90
2018-12-17T16:27:05.806Z,241.63
2018-12-17T16:29:36.019Z,244.27
2018-12-17T16:32:06.326Z,253.73
2018-12-17T16:34:36.706Z,245.77
2018-12-17T16:37:08.095Z,245.23
2018-12-17T16:39:40.022Z,246.23
2018-12-17T16:42:13.215Z,245.13
2018-12-17T16:44:43.474Z,238.10
2018-12-17T16:47:16.278Z,250.13
2018-12-17T16:49:47.003Z,224.30
2018-12-17T16:52:17.282Z,226.53
2018-12-17T16:54:49.274Z,246.80
2018-12-17T16:57:22.509Z,216.47
2018-12-17T16:59:53.347Z,230.17
2018-12-17T17:02:23.886Z,232.90
2018-12-17T17:04:59.739Z,223.60
2018-12-17T17:07:30.122Z,233.87
2018-12-17T17:10:04.817Z,231.03
2018-12-17T17:12:37.345Z,224.90
2018-12-17T17:15:11.969Z,221.60
2018-12-17T17:17:43.343Z,227.30
2018-12-17T17:20:15.076Z,253.07
2018-12-17T17:22:49.034Z,232.83
2018-12-17T17:25:25.288Z,251.00
2018-12-17T17:27:56.144Z,247.27
2018-12-17T17:30:29.019Z,245.67
2018-12-17T17:32:59.440Z,263.50
2018-12-17T17:35:35.630Z,271.20
2018-12-17T17:38:07.889Z,268.27
2018-12-17T17:40:38.386Z,287.53
2018-12-17T17:43:09.770Z,294.83
2018-12-17T17:45:39.721Z,288.23
2018-12-17T17:48:11.270Z,281.47
2018-12-17T17:50:48.079Z,294.67
2018-12-17T17:53:18.697Z,281.80
2018-12-17T17:55:49.250Z,275.23
2018-12-17T17:58:19.622Z,288.27
2018-12-17T18:00:49.852Z,308.60
2018-12-17T18:03:20.950Z,298.97
2018-12-17T18:05:52.011Z,306.03
2018-12-17T18:08:23.324Z,308.20
2018-12-17T18:10:54.565Z,307.53
2018-12-17T18:13:31.081Z,317.60
2018-12-17T18:16:02.868Z,324.93
2018-12-17T18:18:36.566Z,317.30
2018-12-17T18:21:12.342Z,338.50
2018-12-17T18:26:51.164Z,358.30
2018-12-17T18:29:22.922Z,331.43
2018-12-17T18:32:02.502Z,321.37
2018-12-17T18:34:33.571Z,326.63
2018-12-17T18:37:03.917Z,354.80
2018-12-17T18:39:36.792Z,333.87
2018-12-17T18:42:08.998Z,361.57
2018-12-17T18:44:39.361Z,351.77
2018-12-17T18:47:12.326Z,356.00
2018-12-17T18:49:46.011Z,382.53
2018-12-17T18:52:17.297Z,370.93
2018-12-17T18:55:11.367Z,363.87
2018-12-17T18:57:49.152Z,365.73
2018-12-17T19:00:29.468Z,345.97
2018-12-17T19:03:06.137Z,352.77
2018-12-17T19:05:38.244Z,360.43
2018-12-17T19:08:36.123Z,382.30
2018-12-17T19:11:20.718Z,365.30
2018-12-17T19:13:51.713Z,393.80
2018-12-17T19:16:27.530Z,371.80
2018-12-17T19:18:59.396Z,385.67
2018-12-17T19:21:29.666Z,382.97
2018-12-17T19:24:02.133Z,401.50
2018-12-17T19:26:33.152Z,390.03
2018-12-17T19:29:03.289Z,377.53
2018-12-17T19:31:34.957Z,411.63
2018-12-17T19:34:05.744Z,362.23
2018-12-17T19:36:43.188Z,375.13
2018-12-17T19:39:13.649Z,366.77
2018-12-17T19:41:59.174Z,451.43
2018-12-17T19:44:38.140Z,436.90
2018-12-17T19:47:13.016Z,356.73
2018-12-17T19:49:44.410Z,331.80
2018-12-17T19:52:32.805Z,331.70
2018-12-17T19:55:03.511Z,325.83
2018-12-17T19:57:40.687Z,346.27
2018-12-17T20:00:11.923Z,339.03
2018-12-17T20:02:46.930Z,350.20
2018-12-17T20:05:19.103Z,325.63
2018-12-17T20:08:13.194Z,340.40
2018-12-17T20:10:58.978Z,333.93
2018-12-17T20:13:42.264Z,324.47
2018-12-17T20:16:12.824Z,344.13
2018-12-17T20:18:43.682Z,342.77
2018-12-17T20:21:26.640Z,348.93
2018-12-17T20:24:18.291Z,351.73
2018-12-17T20:26:59.914Z,333.40
2018-12-17T20:29:50.274Z,357.67
2018-12-17T20:32:45.163Z,348.53
2018-12-17T20:45:36.457Z,374.53
2018-12-17T20:50:59.550Z,361.77
2018-12-17T20:53:46.090Z,328.60
2018-12-17T20:56:35.183Z,333.47
2018-12-17T20:59:14.451Z,349.53
2018-12-17T21:01:54.264Z,372.40
2018-12-17T21:04:34.104Z,383.60
2018-12-17T21:07:16.881Z,359.23
2018-12-17T21:09:51.849Z,385.30
2018-12-17T21:12:24.722Z,380.63
2018-12-17T21:15:05.834Z,378.20
2018-12-17T21:17:40.167Z,366.10
2018-12-17T21:20:14.450Z,368.37
2018-12-17T21:22:46.092Z,357.33
2018-12-17T21:25:31.933Z,375.23
2018-12-17T21:28:04.429Z,392.77
2018-12-17T21:30:52.945Z,358.30
2018-12-17T21:33:33.574Z,344.40
2018-12-17T21:36:04.179Z,370.47
2018-12-17T21:39:00.574Z,365.80
2018-12-17T21:41:36.593Z,379.03
2018-12-17T21:44:11.134Z,386.73
2018-12-17T21:46:41.336Z,386.27
2018-12-17T21:49:19.621Z,405.80
2018-12-17T21:52:01.180Z,409.77
2018-12-17T21:54:35.819Z,421.57
2018-12-17T21:57:09.800Z,403.20
2018-12-17T21:59:49.981Z,389.17
2018-12-17T22:02:30.412Z,393.40
2018-12-17T22:05:15.011Z,382.90
2018-12-17T22:07:45.307Z,398.57
2018-12-17T22:10:20.170Z,406.80
2018-12-17T22:12:51.035Z,392.13
2018-12-17T22:15:21.961Z,413.43
2018-12-17T22:18:03.255Z,414.60
2018-12-17T22:20:37.277Z,412.00
2018-12-17T22:23:07.512Z,419.77
2018-12-17T22:25:38.168Z,432.53
2018-12-17T22:28:20.001Z,428.83
2018-12-17T22:30:51.279Z,432.73
2018-12-17T22:33:21.769Z,466.03
2018-12-17T22:35:51.947Z,439.80
2018-12-17T22:38:22.646Z,441.83
2018-12-17T22:40:53.758Z,479.97
2018-12-17T22:43:24.640Z,450.83
2018-12-17T22:45:55.606Z,456.40
2018-12-17T22:48:28.418Z,463.63
2018-12-17T22:50:58.407Z,392.13
2018-12-17T22:53:28.316Z,425.80
2018-12-17T22:55:59.189Z,391.40
2018-12-17T22:58:33.880Z,435.50
2018-12-17T23:01:04.372Z,394.00
2018-12-17T23:03:37.036Z,426.07
2018-12-17T23:06:07.964Z,415.80
2018-12-17T23:08:40.228Z,439.00
2018-12-17T23:11:22.523Z,443.97
2018-12-17T23:14:03.498Z,437.37
2018-12-17T23:16:44.266Z,429.07
2018-12-17T23:19:13.597Z,419.73
2018-12-17T23:21:45.827Z,455.40
2018-12-17T23:24:17.840Z,430.27
2018-12-17T23:26:48.703Z,458.37
2018-12-17T23:29:20.980Z,443.93
2018-12-17T23:31:54.782Z,448.00
2018-12-17T23:34:36.064Z,457.20
2018-12-17T23:37:06.304Z,476.30
2018-12-17T23:39:36.560Z,445.63
2018-12-17T23:42:17.501Z,442.83
2018-12-17T23:44:48.095Z,431.67
2018-12-17T23:47:18.354Z,435.97
2018-12-17T23:49:48.599Z,453.73
2018-12-17T23:52:25.329Z,438.70
2018-12-17T23:54:56.087Z,433.43
2018-12-17T23:57:26.048Z,436.77
2018-12-17T23:59:55.890Z,465.37
